Time;durP1;ratioP1;P1;durP2;ratioP2;P2;SDS_P1;SDS_P2;PMS_P1;PMS_P2;Temp;Humidity;BMP_temperature;BMP_pressure;BME280_temperature;BME280_humidity;BME280_pressure;Samples;Min_cycle;Max_cycle;Signal;HPM_P1;HPM_P2
2024/01/21 00:02:06;;;;;;;21.13;19.38;;;8.10;99.90;;;;;;4879756;29;20033;-84
2024/01/21 00:04:32;;;;;;;21.45;19.83;;;8.10;99.90;;;;;;4880993;29;20033;-83
2024/01/21 00:06:59;;;;;;;21.42;19.38;;;8.10;99.90;;;;;;4864537;29;20487;-84
2024/01/21 00:09:28;;;;;;;21.45;19.90;;;8.10;99.90;;;;;;4849144;29;20033;-83
2024/01/21 00:11:55;;;;;;;22.08;19.67;;;8.10;99.90;;;;;;4864125;29;20052;-83
2024/01/21 00:14:21;;;;;;;23.85;20.00;;;8.10;99.90;;;;;;4879523;29;20025;-83
2024/01/21 00:16:51;;;;;;;22.27;20.13;;;8.10;99.90;;;;;;4864327;29;20045;-83
2024/01/21 00:19:18;;;;;;;21.25;19.75;;;8.00;99.90;;;;;;4880610;29;20037;-83
2024/01/21 00:21:44;;;;;;;22.88;20.73;;;8.00;99.90;;;;;;4879253;29;20047;-84
2024/01/21 00:24:11;;;;;;;22.65;20.60;;;8.00;99.90;;;;;;4864620;29;20029;-83
2024/01/21 00:26:37;;;;;;;23.08;20.73;;;7.90;99.90;;;;;;4850655;29;20080;-86
2024/01/21 00:29:03;;;;;;;22.05;19.83;;;7.90;99.90;;;;;;4878735;29;20029;-84
2024/01/21 00:31:30;;;;;;;25.70;20.25;;;7.90;99.90;;;;;;4879182;29;20060;-84
2024/01/21 00:33:56;;;;;;;24.08;20.55;;;7.90;99.90;;;;;;4878993;29;20048;-84
2024/01/21 00:36:23;;;;;;;20.95;19.48;;;7.90;99.90;;;;;;4879625;29;20041;-85
2024/01/21 00:38:49;;;;;;;21.83;20.15;;;7.80;99.90;;;;;;4879736;29;20044;-83
2024/01/21 00:41:16;;;;;;;22.33;20.23;;;7.80;99.90;;;;;;4879690;29;20029;-83
2024/01/21 00:43:42;;;;;;;23.42;19.40;;;7.80;99.90;;;;;;4879770;29;20078;-83
2024/01/21 00:46:08;;;;;;;22.08;20.15;;;7.80;99.90;;;;;;4879396;29;20025;-83
2024/01/21 00:48:34;;;;;;;21.33;19.58;;;7.80;99.90;;;;;;4879404;29;20112;-83
2024/01/21 00:51:01;;;;;;;21.67;19.70;;;7.80;99.90;;;;;;4879596;29;20169;-83
2024/01/21 00:53:27;;;;;;;22.90;20.52;;;7.80;99.90;;;;;;4879468;29;20040;-83
2024/01/21 00:55:54;;;;;;;21.75;19.85;;;7.80;99.90;;;;;;4862460;29;20053;-84
2024/01/21 00:58:20;;;;;;;22.27;19.98;;;7.70;99.90;;;;;;4845196;29;20045;-83
2024/01/21 01:00:46;;;;;;;23.67;19.98;;;7.70;99.90;;;;;;4845359;29;20112;-83
2024/01/21 01:03:13;;;;;;;30.52;19.20;;;7.70;99.90;;;;;;4845131;29;20063;-82
2024/01/21 01:05:40;;;;;;;21.15;18.75;;;7.70;99.90;;;;;;4845326;29;20026;-84
2024/01/21 01:08:07;;;;;;;21.02;19.17;;;7.70;99.90;;;;;;4860782;29;20441;-84
2024/01/21 01:10:33;;;;;;;21.00;18.90;;;7.70;99.90;;;;;;4845378;29;20032;-82
2024/01/21 01:13:00;;;;;;;20.95;19.15;;;7.70;99.90;;;;;;4845073;29;20093;-82
2024/01/21 01:15:26;;;;;;;21.20;19.15;;;7.70;99.90;;;;;;4860552;29;20033;-84
2024/01/21 01:17:53;;;;;;;20.60;18.67;;;7.70;99.90;;;;;;4860304;29;20041;-83
2024/01/21 01:20:19;;;;;;;21.00;19.25;;;7.70;99.90;;;;;;4844902;29;20036;-83
2024/01/21 01:22:45;;;;;;;22.13;20.13;;;7.70;99.90;;;;;;4845016;29;20055;-83
2024/01/21 01:25:12;;;;;;;20.73;18.90;;;7.80;99.90;;;;;;4855628;29;20025;-83
2024/01/21 01:27:38;;;;;;;21.67;19.55;;;7.70;99.90;;;;;;4879076;29;20537;-83
2024/01/21 01:30:05;;;;;;;21.58;19.67;;;7.80;99.90;;;;;;4878704;29;20104;-82
2024/01/21 01:32:32;;;;;;;21.58;19.20;;;7.80;99.90;;;;;;4875472;29;20033;-84
2024/01/21 01:34:58;;;;;;;20.20;18.80;;;7.80;99.90;;;;;;4878347;29;20052;-83
2024/01/21 01:37:24;;;;;;;20.65;19.00;;;7.80;99.90;;;;;;4878403;29;20550;-82
2024/01/21 01:39:51;;;;;;;22.75;20.17;;;7.80;99.90;;;;;;4880857;29;20033;-83
2024/01/21 01:42:17;;;;;;;20.65;18.52;;;7.80;99.90;;;;;;4887155;29;20032;-83
2024/01/21 01:44:44;;;;;;;20.20;18.30;;;7.80;99.90;;;;;;4884751;29;20463;-83
2024/01/21 01:47:10;;;;;;;19.70;18.48;;;7.80;99.90;;;;;;4869479;29;20033;-83
2024/01/21 01:49:39;;;;;;;20.15;18.65;;;7.80;99.90;;;;;;4854111;29;20025;-83
2024/01/21 01:52:06;;;;;;;21.58;19.58;;;7.80;99.90;;;;;;4869473;29;20037;-83
2024/01/21 01:54:34;;;;;;;31.95;20.75;;;7.80;99.90;;;;;;4856121;29;20037;-83
2024/01/21 01:57:03;;;;;;;24.95;19.02;;;7.80;99.90;;;;;;4873934;29;20061;-83
2024/01/21 01:59:32;;;;;;;21.35;19.17;;;7.80;99.90;;;;;;4869361;29;20033;-83
2024/01/21 02:01:59;;;;;;;20.85;19.05;;;7.80;99.90;;;;;;4869229;29;20119;-83
2024/01/21 02:04:25;;;;;;;22.50;20.40;;;7.80;99.90;;;;;;4869211;29;20033;-83
2024/01/21 02:06:52;;;;;;;20.77;19.25;;;7.80;99.90;;;;;;4869195;29;20033;-83
2024/01/21 02:09:19;;;;;;;24.88;19.50;;;7.80;99.90;;;;;;4869366;29;20033;-83
2024/01/21 02:11:45;;;;;;;21.92;19.95;;;7.80;99.90;;;;;;4884705;29;20025;-83
2024/01/21 02:14:12;;;;;;;21.70;19.80;;;7.80;99.90;;;;;;4884752;29;20060;-83
2024/01/21 02:16:39;;;;;;;23.08;20.63;;;7.80;99.90;;;;;;4869698;29;20128;-83
2024/01/21 02:19:18;;;;;;;23.15;20.38;;;7.80;99.90;;;;;;4869352;29;20124;-83
2024/01/21 02:21:44;;;;;;;23.02;20.67;;;7.70;99.90;;;;;;4869111;29;20089;-83
2024/01/21 02:24:10;;;;;;;21.92;20.08;;;7.70;99.90;;;;;;4869028;29;20085;-83
2024/01/21 02:26:36;;;;;;;22.52;20.88;;;7.70;99.90;;;;;;4868986;29;20032;-83
2024/01/21 02:29:03;;;;;;;22.73;20.90;;;7.70;99.90;;;;;;4868987;29;20119;-83
2024/01/21 02:31:29;;;;;;;22.65;21.05;;;7.70;99.90;;;;;;4869145;29;20461;-83
2024/01/21 02:33:55;;;;;;;21.90;20.08;;;7.70;99.90;;;;;;4868624;29;20056;-83
2024/01/21 02:36:21;;;;;;;23.35;21.40;;;7.60;99.90;;;;;;4869202;29;20517;-83
2024/01/21 02:38:51;;;;;;;22.60;20.98;;;7.60;99.90;;;;;;4868977;29;20048;-84
2024/01/21 02:41:17;;;;;;;23.38;21.10;;;7.70;99.90;;;;;;4868991;29;20091;-82
2024/01/21 02:43:43;;;;;;;22.52;20.80;;;7.70;99.90;;;;;;4853281;29;20035;-83
2024/01/21 02:46:10;;;;;;;22.95;20.80;;;7.70;99.90;;;;;;4853480;29;20538;-83
2024/01/21 02:48:36;;;;;;;22.10;20.25;;;7.70;99.90;;;;;;4868618;29;20037;-84
2024/01/21 02:51:03;;;;;;;21.48;19.65;;;7.60;99.90;;;;;;4867219;29;20037;-83
2024/01/21 02:53:29;;;;;;;22.10;20.13;;;7.60;99.90;;;;;;4865950;29;20029;-83
2024/01/21 02:55:56;;;;;;;21.52;19.88;;;7.60;99.90;;;;;;4883062;29;20474;-84
2024/01/21 02:58:22;;;;;;;23.85;20.55;;;7.60;99.90;;;;;;4867588;29;20436;-84
2024/01/21 03:00:49;;;;;;;22.58;20.50;;;7.60;99.90;;;;;;4866291;29;20108;-84
2024/01/21 03:03:15;;;;;;;22.25;20.65;;;7.50;99.90;;;;;;4866176;29;20036;-83
2024/01/21 03:05:41;;;;;;;23.00;20.83;;;7.60;99.90;;;;;;4865870;29;20025;-83
2024/01/21 03:08:09;;;;;;;23.48;21.08;;;7.60;99.90;;;;;;4882503;29;20028;-85
2024/01/21 03:10:35;;;;;;;22.42;20.83;;;7.50;99.90;;;;;;4865962;29;20117;-83
2024/01/21 03:13:02;;;;;;;23.30;21.23;;;7.50;99.90;;;;;;4865801;29;20044;-84
2024/01/21 03:15:28;;;;;;;23.92;21.45;;;7.50;99.90;;;;;;4874028;29;20098;-83
2024/01/21 03:17:54;;;;;;;23.25;20.73;;;7.50;99.90;;;;;;4880951;29;20119;-83
2024/01/21 03:20:20;;;;;;;22.33;20.58;;;7.50;99.90;;;;;;4881188;29;20037;-83
2024/01/21 03:22:47;;;;;;;21.70;20.08;;;7.40;99.90;;;;;;4882312;29;20100;-83
2024/01/21 03:25:13;;;;;;;23.48;20.65;;;7.40;99.90;;;;;;4877660;29;20505;-83
2024/01/21 03:27:39;;;;;;;22.75;20.50;;;7.40;99.90;;;;;;4865221;29;20128;-83
2024/01/21 03:30:06;;;;;;;21.92;20.20;;;7.40;99.90;;;;;;4848929;29;20499;-83
2024/01/21 03:32:32;;;;;;;23.92;20.63;;;7.40;99.90;;;;;;4871370;29;20053;-84
2024/01/21 03:34:59;;;;;;;21.38;19.63;;;7.40;99.90;;;;;;4876817;29;20121;-83
2024/01/21 03:37:25;;;;;;;21.25;19.08;;;7.40;99.90;;;;;;4872706;29;20037;-83
2024/01/21 03:39:53;;;;;;;20.27;18.73;;;7.40;99.90;;;;;;4849918;29;20062;-83
2024/01/21 03:42:19;;;;;;;20.58;18.63;;;7.40;99.90;;;;;;4865023;29;20021;-83
2024/01/21 03:44:47;;;;;;;25.58;19.40;;;7.40;99.90;;;;;;4867666;29;20398;-83
2024/01/21 03:47:13;;;;;;;21.00;18.92;;;7.40;99.90;;;;;;4888952;29;20033;-83
2024/01/21 03:49:40;;;;;;;19.77;18.38;;;7.40;99.90;;;;;;4849735;29;20483;-83
2024/01/21 03:52:09;;;;;;;19.67;18.38;;;7.40;99.90;;;;;;4864657;29;20081;-82
2024/01/21 03:54:36;;;;;;;22.23;19.88;;;7.40;99.90;;;;;;4864837;29;20065;-84
2024/01/21 03:57:02;;;;;;;21.02;18.80;;;7.40;99.90;;;;;;4864909;29;20071;-83
2024/01/21 03:59:29;;;;;;;20.73;18.88;;;7.50;99.90;;;;;;4863832;29;20048;-84
2024/01/21 04:01:56;;;;;;;22.48;18.92;;;7.60;99.90;;;;;;4849391;29;20041;-83
2024/01/21 04:04:22;;;;;;;20.73;18.83;;;7.60;99.90;;;;;;4863545;29;20455;-83
2024/01/21 04:06:49;;;;;;;22.38;18.67;;;7.70;99.90;;;;;;4864840;29;20032;-84
2024/01/21 04:09:22;;;;;;;20.95;18.88;;;7.70;99.90;;;;;;4864722;29;20060;-83
2024/01/21 04:11:49;;;;;;;20.40;18.60;;;7.70;99.90;;;;;;4865173;29;20376;-83
2024/01/21 04:14:16;;;;;;;21.33;19.10;;;7.70;99.90;;;;;;4864668;29;20502;-83
2024/01/21 04:16:42;;;;;;;20.08;18.23;;;7.60;99.90;;;;;;4849326;29;20067;-83
2024/01/21 04:19:09;;;;;;;22.90;19.88;;;7.60;99.90;;;;;;4864338;29;20064;-83
2024/01/21 04:21:36;;;;;;;21.92;19.13;;;7.60;99.90;;;;;;4848788;29;20033;-84
2024/01/21 04:24:06;;;;;;;23.00;19.30;;;7.60;99.90;;;;;;4864456;29;20029;-83
2024/01/21 04:26:33;;;;;;;20.08;18.40;;;7.60;99.90;;;;;;4864381;29;20444;-83
2024/01/21 04:28:59;;;;;;;20.65;18.77;;;7.60;99.90;;;;;;4881080;29;20025;-84
2024/01/21 04:31:26;;;;;;;21.95;18.73;;;7.60;99.90;;;;;;4844952;29;20033;-83
2024/01/21 04:33:52;;;;;;;25.15;18.65;;;7.70;99.90;;;;;;4845948;29;20054;-84
2024/01/21 04:36:19;;;;;;;20.55;18.55;;;7.70;99.90;;;;;;4861431;29;20048;-83
2024/01/21 04:38:46;;;;;;;20.48;18.80;;;7.80;99.90;;;;;;4845714;29;20400;-84
2024/01/21 04:41:13;;;;;;;22.88;19.00;;;7.80;99.90;;;;;;4847564;29;20057;-84
2024/01/21 04:43:40;;;;;;;21.38;18.58;;;7.80;99.90;;;;;;4864201;29;20033;-83
2024/01/21 04:46:06;;;;;;;20.33;18.42;;;7.80;99.90;;;;;;4860295;29;20029;-83
2024/01/21 04:48:33;;;;;;;25.05;18.38;;;7.90;99.90;;;;;;4879594;29;20127;-83
2024/01/21 04:50:59;;;;;;;20.08;18.42;;;7.90;99.90;;;;;;4879266;29;20498;-83
2024/01/21 04:53:26;;;;;;;21.10;19.27;;;7.90;99.90;;;;;;4830277;29;20036;-82
2024/01/21 04:55:52;;;;;;;21.77;19.42;;;7.90;99.90;;;;;;4883547;29;20064;-83
2024/01/21 04:58:19;;;;;;;20.60;18.80;;;8.00;99.90;;;;;;4879087;29;20041;-82
2024/01/21 05:00:46;;;;;;;21.02;19.38;;;8.00;99.90;;;;;;4879154;29;20033;-83
2024/01/21 05:03:13;;;;;;;21.80;19.75;;;8.10;99.90;;;;;;4880161;29;20029;-83
2024/01/21 05:05:40;;;;;;;22.75;20.60;;;8.10;99.90;;;;;;4878795;29;20041;-83
2024/01/21 05:08:06;;;;;;;21.70;20.08;;;8.10;99.90;;;;;;4878919;29;20487;-83
2024/01/21 05:10:33;;;;;;;21.58;19.55;;;8.10;99.90;;;;;;4878759;29;20064;-83
2024/01/21 05:13:00;;;;;;;21.75;19.83;;;8.20;99.90;;;;;;4866199;29;20487;-82
2024/01/21 05:15:26;;;;;;;21.60;20.05;;;8.10;99.90;;;;;;4862833;29;20029;-82
2024/01/21 05:17:56;;;;;;;22.30;20.23;;;8.20;99.90;;;;;;4847944;29;20131;-83
2024/01/21 05:20:23;;;;;;;21.40;19.98;;;8.20;99.90;;;;;;4879934;29;20069;-83
2024/01/21 05:22:50;;;;;;;22.38;20.30;;;8.20;99.90;;;;;;4849563;29;20036;-83
2024/01/21 05:25:18;;;;;;;22.92;21.33;;;8.20;99.90;;;;;;4874297;29;20030;-83
2024/01/21 05:27:44;;;;;;;23.45;21.48;;;8.20;99.90;;;;;;4879174;29;20029;-83
2024/01/21 05:30:12;;;;;;;23.30;21.10;;;8.20;99.90;;;;;;4875772;29;20033;-83
2024/01/21 05:32:40;;;;;;;23.25;21.42;;;8.20;99.90;;;;;;4863289;29;20037;-83
2024/01/21 05:35:07;;;;;;;23.30;21.70;;;8.20;99.90;;;;;;4853384;29;20046;-83
2024/01/21 05:37:33;;;;;;;23.33;21.67;;;8.20;99.90;;;;;;4859958;29;20174;-82
2024/01/21 05:40:00;;;;;;;22.80;21.27;;;8.20;99.90;;;;;;4855854;29;20022;-83
2024/01/21 05:42:26;;;;;;;23.75;21.55;;;8.20;99.90;;;;;;4841951;29;20041;-83
2024/01/21 05:44:53;;;;;;;23.48;21.35;;;8.20;99.90;;;;;;4841651;29;20034;-83
2024/01/21 05:47:19;;;;;;;22.75;21.35;;;8.20;99.90;;;;;;4841735;29;20032;-83
2024/01/21 05:49:45;;;;;;;23.65;21.92;;;8.20;99.90;;;;;;4857396;29;20125;-83
2024/01/21 05:52:12;;;;;;;23.48;21.67;;;8.20;99.90;;;;;;4857097;29;20038;-83
2024/01/21 05:54:39;;;;;;;23.85;21.98;;;8.20;99.90;;;;;;4859643;29;20049;-83
2024/01/21 05:57:05;;;;;;;22.17;20.98;;;8.20;99.90;;;;;;4875331;29;20391;-82
2024/01/21 05:59:32;;;;;;;23.20;21.60;;;8.20;99.90;;;;;;4874606;29;20046;-83
2024/01/21 06:01:58;;;;;;;22.85;21.30;;;8.20;99.90;;;;;;4856839;29;20034;-82
2024/01/21 06:04:25;;;;;;;24.15;22.25;;;8.10;99.90;;;;;;4856810;29;20037;-83
2024/01/21 06:06:52;;;;;;;24.38;22.10;;;8.10;99.90;;;;;;4841669;29;20034;-83
2024/01/21 06:09:18;;;;;;;22.83;21.35;;;8.10;99.90;;;;;;4856826;29;20034;-82
2024/01/21 06:11:45;;;;;;;23.30;21.67;;;8.10;99.90;;;;;;4858702;29;20112;-83
2024/01/21 06:14:11;;;;;;;23.85;22.05;;;8.10;99.90;;;;;;4859534;29;20029;-82
2024/01/21 06:16:38;;;;;;;23.70;21.92;;;8.10;99.90;;;;;;4859810;29;20094;-82
2024/01/21 06:19:05;;;;;;;24.63;22.42;;;8.10;99.90;;;;;;4875051;29;20121;-83
2024/01/21 06:21:31;;;;;;;23.02;21.52;;;8.00;99.90;;;;;;4874884;29;20090;-83
2024/01/21 06:23:58;;;;;;;24.55;22.75;;;8.00;99.90;;;;;;4843492;29;20034;-82
2024/01/21 06:26:24;;;;;;;24.63;22.02;;;8.00;99.90;;;;;;4857112;29;20030;-83
2024/01/21 06:28:52;;;;;;;24.17;22.27;;;8.00;99.90;;;;;;4844521;29;20038;-83
2024/01/21 06:31:19;;;;;;;23.13;21.73;;;8.00;99.90;;;;;;4844558;29;20030;-83
2024/01/21 06:33:45;;;;;;;23.90;21.88;;;8.00;99.90;;;;;;4861572;29;20034;-83
2024/01/21 06:36:11;;;;;;;23.42;21.98;;;8.00;99.90;;;;;;4872340;29;20041;-83
2024/01/21 06:38:41;;;;;;;24.50;22.85;;;8.00;99.90;;;;;;4881398;29;20418;-82
2024/01/21 06:41:07;;;;;;;24.98;22.90;;;8.00;99.90;;;;;;4883937;29;20104;-83
2024/01/21 06:43:33;;;;;;;25.08;23.23;;;8.10;99.90;;;;;;4872282;29;20115;-83
2024/01/21 06:45:59;;;;;;;25.08;23.50;;;8.20;99.90;;;;;;4882679;29;20017;-83
2024/01/21 06:48:26;;;;;;;26.13;24.35;;;8.30;99.90;;;;;;4881679;29;20120;-83
2024/01/21 06:50:53;;;;;;;26.05;24.25;;;8.40;99.90;;;;;;4882693;29;20039;-83
2024/01/21 06:53:20;;;;;;;26.45;24.70;;;8.50;99.90;;;;;;4874339;29;20512;-83
2024/01/21 06:55:46;;;;;;;26.67;25.08;;;8.70;99.90;;;;;;4869890;29;20029;-83
2024/01/21 06:58:13;;;;;;;27.65;25.85;;;8.80;99.90;;;;;;4847232;29;20041;-83
2024/01/21 07:00:39;;;;;;;26.73;25.13;;;9.00;99.90;;;;;;4847457;29;20082;-83
2024/01/21 07:03:05;;;;;;;28.52;26.70;;;9.10;99.90;;;;;;4850095;29;20080;-82
2024/01/21 07:05:32;;;;;;;28.35;26.52;;;9.00;99.90;;;;;;4880714;29;20566;-83
2024/01/21 07:07:58;;;;;;;27.70;25.80;;;9.20;99.90;;;;;;4865471;29;20044;-83
2024/01/21 07:10:24;;;;;;;28.70;26.45;;;9.40;99.90;;;;;;4850291;29;20029;-83
2024/01/21 07:12:51;;;;;;;27.38;25.65;;;9.50;99.90;;;;;;4848738;29;20029;-83
2024/01/21 07:15:17;;;;;;;27.73;26.02;;;9.60;99.90;;;;;;4862233;29;20054;-83
2024/01/21 07:17:44;;;;;;;29.05;27.10;;;9.80;99.90;;;;;;4862462;29;20046;-83
2024/01/21 07:20:14;;;;;;;28.90;26.85;;;9.80;99.90;;;;;;4846954;29;20030;-82
2024/01/21 07:22:41;;;;;;;29.33;27.08;;;9.80;99.90;;;;;;4846896;29;20487;-82
2024/01/21 07:25:08;;;;;;;28.55;26.45;;;9.90;99.90;;;;;;4869324;29;20456;-82
2024/01/21 07:27:35;;;;;;;29.48;27.23;;;9.90;99.90;;;;;;4881834;29;20025;-83
2024/01/21 07:30:01;;;;;;;28.88;27.08;;;9.90;99.90;;;;;;4865274;29;20040;-82
2024/01/21 07:32:28;;;;;;;28.60;26.65;;;10.00;99.90;;;;;;4880525;29;20527;-83
2024/01/21 07:34:57;;;;;;;28.83;26.92;;;10.00;99.90;;;;;;4858788;29;20057;-83
2024/01/21 07:37:23;;;;;;;29.98;27.67;;;9.90;99.90;;;;;;4846235;29;20094;-84
2024/01/21 07:39:50;;;;;;;29.73;27.75;;;10.00;99.90;;;;;;4846756;29;20060;-83
2024/01/21 07:42:16;;;;;;;29.58;27.27;;;10.00;99.90;;;;;;4867785;29;20037;-83
2024/01/21 07:44:42;;;;;;;28.92;27.10;;;10.00;99.90;;;;;;4862185;29;20033;-83
2024/01/21 07:47:09;;;;;;;29.15;27.15;;;10.00;99.90;;;;;;4875133;29;20104;-83
2024/01/21 07:49:36;;;;;;;28.90;26.85;;;10.10;99.90;;;;;;4849463;29;20518;-82
2024/01/21 07:52:02;;;;;;;28.67;26.77;;;10.20;99.90;;;;;;4864735;29;20037;-81
2024/01/21 07:54:28;;;;;;;28.13;26.17;;;10.30;99.90;;;;;;4864750;29;20048;-84
2024/01/21 07:56:57;;;;;;;30.25;27.98;;;10.40;99.90;;;;;;4864646;29;20099;-82
2024/01/21 07:59:24;;;;;;;28.90;27.05;;;10.30;99.90;;;;;;4880802;29;20413;-82
2024/01/21 08:01:51;;;;;;;28.42;26.50;;;10.50;99.90;;;;;;4848961;29;20506;-82
2024/01/21 08:04:17;;;;;;;29.33;27.30;;;10.40;99.90;;;;;;4844780;29;20036;-84
2024/01/21 08:06:44;;;;;;;28.50;26.80;;;10.40;99.90;;;;;;4883865;29;20025;-82
2024/01/21 08:09:11;;;;;;;28.83;26.92;;;10.40;99.90;;;;;;4864321;29;20036;-82
2024/01/21 08:11:38;;;;;;;29.92;27.40;;;10.60;99.90;;;;;;4864554;29;20032;-82
2024/01/21 08:14:05;;;;;;;28.80;26.50;;;10.70;99.90;;;;;;4879081;29;20025;-83
2024/01/21 08:16:32;;;;;;;28.60;26.50;;;10.80;99.90;;;;;;4875743;29;20041;-82
2024/01/21 08:18:58;;;;;;;30.88;28.30;;;10.60;99.90;;;;;;4880236;29;20483;-81
2024/01/21 08:21:24;;;;;;;30.75;28.02;;;10.70;99.90;;;;;;4878430;29;20037;-80
2024/01/21 08:23:50;;;;;;;31.58;28.70;;;10.80;99.90;;;;;;4863528;29;20033;-81
2024/01/21 08:26:17;;;;;;;29.35;26.88;;;10.80;99.90;;;;;;4852179;29;20029;-83
2024/01/21 08:28:43;;;;;;;29.40;27.50;;;10.80;99.90;;;;;;4863472;29;20031;-82
2024/01/21 08:31:10;;;;;;;30.50;28.35;;;10.60;99.90;;;;;;4879993;29;20043;-81
2024/01/21 08:33:37;;;;;;;29.92;27.85;;;10.40;99.90;;;;;;4863045;29;20479;-81
2024/01/21 08:36:04;;;;;;;30.02;27.90;;;10.40;99.90;;;;;;4861601;29;20037;-82
2024/01/21 08:38:30;;;;;;;29.70;27.80;;;10.70;99.90;;;;;;4879824;29;20041;-81
2024/01/21 08:40:57;;;;;;;29.83;28.00;;;11.00;99.90;;;;;;4878743;29;20029;-82
2024/01/21 08:43:23;;;;;;;30.63;28.58;;;11.30;99.90;;;;;;4878360;29;20125;-82
2024/01/21 08:45:50;;;;;;;30.02;27.92;;;11.50;99.90;;;;;;4894376;29;20025;-81
2024/01/21 08:48:16;;;;;;;30.70;28.65;;;11.10;99.90;;;;;;4868620;29;20025;-81
2024/01/21 08:50:43;;;;;;;30.10;28.20;;;10.90;99.90;;;;;;4860046;29;20387;-80
2024/01/21 08:53:09;;;;;;;30.67;28.50;;;10.60;99.90;;;;;;4844287;29;20038;-80
2024/01/21 08:55:35;;;;;;;30.10;28.20;;;10.60;99.90;;;;;;4859966;29;20410;-82
2024/01/21 08:58:02;;;;;;;30.52;28.63;;;10.70;99.90;;;;;;4860131;29;20097;-81
2024/01/21 09:00:29;;;;;;;30.45;28.65;;;10.90;99.90;;;;;;4869645;29;20105;-80
2024/01/21 09:02:55;;;;;;;30.30;28.60;;;10.90;99.90;;;;;;4878237;29;20089;-80
2024/01/21 09:05:22;;;;;;;31.30;29.30;;;10.90;99.90;;;;;;4865216;29;20025;-80
2024/01/21 09:07:48;;;;;;;30.63;28.67;;;11.20;99.90;;;;;;4877297;29;20029;-80
2024/01/21 09:10:17;;;;;;;30.65;28.75;;;11.30;99.90;;;;;;4845522;29;20041;-80
2024/01/21 09:12:43;;;;;;;31.92;29.10;;;11.60;99.90;;;;;;4844484;29;20081;-80
2024/01/21 09:15:10;;;;;;;29.67;27.67;;;11.70;99.90;;;;;;4848783;29;20029;-79
2024/01/21 09:17:38;;;;;;;31.23;29.08;;;11.60;99.90;;;;;;4879422;29;20551;-80
2024/01/21 09:20:05;;;;;;;30.15;28.10;;;11.40;99.90;;;;;;4862634;29;20029;-81
2024/01/21 09:22:31;;;;;;;30.00;28.25;;;11.30;99.90;;;;;;4862660;29;20029;-80
2024/01/21 09:24:58;;;;;;;32.13;30.13;;;10.90;99.90;;;;;;4879278;29;20032;-81
2024/01/21 09:27:25;;;;;;;32.97;30.73;;;10.80;99.90;;;;;;4879362;29;20021;-81
2024/01/21 09:29:52;;;;;;;32.78;30.77;;;10.70;99.90;;;;;;4893496;29;20065;-81
2024/01/21 09:32:18;;;;;;;33.38;30.83;;;10.90;99.90;;;;;;4862419;29;20048;-83
2024/01/21 09:34:45;;;;;;;33.17;31.20;;;11.00;99.90;;;;;;4865631;29;20053;-82
2024/01/21 09:37:12;;;;;;;32.40;30.35;;;10.90;99.90;;;;;;4875188;29;20038;-82
2024/01/21 09:39:38;;;;;;;32.70;30.63;;;11.00;99.90;;;;;;4875197;29;20042;-81
2024/01/21 09:42:09;;;;;;;32.88;30.58;;;11.50;99.90;;;;;;4861703;29;20032;-82
2024/01/21 09:44:36;;;;;;;32.83;30.83;;;11.80;99.90;;;;;;4871931;29;20042;-81
2024/01/21 09:47:03;;;;;;;32.72;30.65;;;11.60;99.90;;;;;;4859829;29;20029;-81
2024/01/21 09:49:31;;;;;;;31.75;29.75;;;11.30;99.90;;;;;;4860897;29;20151;-84
2024/01/21 09:51:58;;;;;;;33.03;31.02;;;11.00;99.90;;;;;;4875167;29;20028;-80
2024/01/21 09:54:25;;;;;;;33.70;31.50;;;10.80;99.90;;;;;;4874276;29;20041;-81
2024/01/21 09:56:52;;;;;;;33.20;30.83;;;10.90;99.90;;;;;;4857403;29;20418;-81
2024/01/21 09:59:18;;;;;;;33.03;31.08;;;11.20;99.90;;;;;;4874935;29;20052;-81
2024/01/21 10:01:45;;;;;;;32.60;30.70;;;11.40;99.90;;;;;;4877720;29;20041;-87
2024/01/21 10:04:16;;;;;;;33.30;31.40;;;11.60;99.90;;;;;;4878284;29;20029;-81
2024/01/21 10:06:43;;;;;;;32.97;31.02;;;11.60;99.90;;;;;;4862830;29;20052;-81
2024/01/21 10:09:16;;;;;;;33.55;31.65;;;11.60;99.90;;;;;;4863084;29;20021;-80
2024/01/21 10:11:50;;;;;;;33.42;31.23;;;11.60;99.90;;;;;;4878274;29;20068;-83
2024/01/21 10:14:16;;;;;;;34.37;32.03;;;11.70;99.90;;;;;;4864260;29;20061;-82
2024/01/21 10:16:43;;;;;;;30.23;28.42;;;11.80;99.90;;;;;;4874390;29;20286;-81
2024/01/21 10:19:14;;;;;;;32.58;30.20;;;11.50;99.90;;;;;;4862586;29;20080;-82
2024/01/21 10:21:41;;;;;;;31.20;29.30;;;11.70;99.90;;;;;;4862815;29;20030;-81
2024/01/21 10:24:10;;;;;;;32.80;30.20;;;11.80;99.90;;;;;;4864194;29;20030;-84
2024/01/21 10:26:43;;;;;;;31.35;29.08;;;11.50;99.90;;;;;;4873712;29;20057;-82
2024/01/21 10:29:09;;;;;;;31.45;29.35;;;11.40;99.90;;;;;;4862889;29;20040;-81
2024/01/21 10:31:36;;;;;;;29.85;27.63;;;11.30;99.90;;;;;;4862582;29;20400;-81
2024/01/21 10:34:03;;;;;;;29.83;27.50;;;11.40;99.90;;;;;;4867248;29;20052;-81
2024/01/21 10:36:35;;;;;;;29.55;27.35;;;11.10;99.90;;;;;;4882246;29;20480;-82
2024/01/21 10:39:06;;;;;;;30.15;28.05;;;11.00;99.90;;;;;;4881030;29;20202;-82
2024/01/21 10:41:34;;;;;;;29.95;27.95;;;11.20;99.90;;;;;;4866084;29;20065;-81
2024/01/21 10:44:02;;;;;;;31.30;29.15;;;11.50;99.90;;;;;;4847032;29;20101;-82
2024/01/21 10:46:32;;;;;;;30.60;28.73;;;11.50;99.90;;;;;;4868880;29;20595;-81
2024/01/21 10:49:00;;;;;;;30.40;27.98;;;11.70;99.90;;;;;;4882132;29;20176;-82
2024/01/21 10:51:29;;;;;;;30.75;28.55;;;11.40;99.90;;;;;;4880602;29;20032;-81
2024/01/21 10:53:59;;;;;;;30.55;28.58;;;11.20;99.90;;;;;;4862195;29;20034;-81
2024/01/21 10:56:30;;;;;;;30.63;28.67;;;11.00;99.90;;;;;;4849087;29;20044;-81
2024/01/21 10:59:01;;;;;;;30.95;28.83;;;11.10;99.90;;;;;;4864362;29;20380;-80
2024/01/21 11:01:28;;;;;;;31.35;29.08;;;11.50;99.90;;;;;;4880365;29;20027;-80
2024/01/21 11:04:07;;;;;;;31.48;29.08;;;11.70;99.90;;;;;;4876236;29;20026;-82
2024/01/21 11:06:36;;;;;;;31.13;29.30;;;11.80;99.90;;;;;;4884280;29;20029;-81
2024/01/21 11:09:03;;;;;;;31.88;29.95;;;11.60;99.90;;;;;;4868887;29;20097;-79
2024/01/21 11:11:30;;;;;;;31.45;29.35;;;11.30;99.90;;;;;;4874883;29;20112;-79
2024/01/21 11:13:57;;;;;;;31.48;29.50;;;11.30;99.90;;;;;;4860997;29;20030;-80
2024/01/21 11:16:26;;;;;;;31.65;29.35;;;11.30;99.90;;;;;;4874276;29;20029;-80
2024/01/21 11:19:07;;;;;;;32.60;30.30;;;11.30;99.90;;;;;;4881117;29;20065;-79
2024/01/21 11:21:42;;;;;;;31.38;29.33;;;11.50;99.90;;;;;;4863407;29;20033;-79
2024/01/21 11:24:14;;;;;;;31.15;28.75;;;11.60;99.90;;;;;;4864873;29;20048;-80
2024/01/21 11:26:42;;;;;;;31.48;29.13;;;11.60;99.90;;;;;;4863076;29;20032;-80
2024/01/21 11:29:29;;;;;;;30.85;28.95;;;11.60;99.90;;;;;;4864065;29;20036;-79
2024/01/21 11:32:05;;;;;;;30.48;28.67;;;11.40;99.90;;;;;;4830761;29;20093;-80
2024/01/21 11:34:38;;;;;;;31.75;29.83;;;11.30;99.90;;;;;;4879998;29;20082;-80
2024/01/21 11:37:09;;;;;;;31.65;29.52;;;11.30;99.90;;;;;;4851659;29;20436;-80
2024/01/21 11:39:39;;;;;;;30.98;28.60;;;11.30;99.90;;;;;;4877880;29;20041;-80
2024/01/21 11:42:06;;;;;;;30.42;28.55;;;11.50;99.90;;;;;;4879733;29;20372;-80
2024/01/21 11:44:33;;;;;;;31.45;28.92;;;11.70;99.90;;;;;;4848991;29;20499;-80
2024/01/21 11:47:04;;;;;;;31.50;29.08;;;11.60;99.90;;;;;;4867051;29;20025;-80
2024/01/21 11:49:32;;;;;;;32.20;29.90;;;11.60;99.90;;;;;;4862155;29;20545;-81
2024/01/21 11:52:05;;;;;;;31.00;29.00;;;11.60;99.90;;;;;;4863289;29;20075;-80
2024/01/21 11:54:36;;;;;;;32.25;30.05;;;11.40;99.90;;;;;;4880106;29;20029;-81
2024/01/21 11:57:03;;;;;;;32.42;29.75;;;11.40;99.90;;;;;;4863686;29;20097;-81
2024/01/21 11:59:31;;;;;;;30.92;28.83;;;11.60;99.90;;;;;;4862557;29;20041;-81
2024/01/21 12:01:57;;;;;;;30.67;28.85;;;11.40;99.90;;;;;;4848062;29;20132;-81
2024/01/21 12:04:27;;;;;;;30.42;28.42;;;11.50;99.90;;;;;;4863031;29;20033;-82
2024/01/21 12:06:54;;;;;;;30.75;28.50;;;11.50;99.90;;;;;;4879482;29;20071;-81
2024/01/21 12:09:22;;;;;;;31.80;29.30;;;11.50;99.90;;;;;;4872511;29;20074;-81
2024/01/21 12:11:52;;;;;;;32.22;29.63;;;11.60;99.90;;;;;;4861709;29;20041;-81
2024/01/21 12:14:21;;;;;;;31.30;29.00;;;11.60;99.90;;;;;;4879720;29;20045;-81
2024/01/21 12:16:53;;;;;;;30.77;28.80;;;11.70;99.90;;;;;;4864016;29;20037;-80
2024/01/21 12:19:19;;;;;;;31.50;29.02;;;11.60;99.90;;;;;;4861825;29;20052;-81
2024/01/21 12:21:47;;;;;;;31.10;28.95;;;11.40;99.90;;;;;;4847293;29;20052;-81
2024/01/21 12:24:14;;;;;;;31.02;29.02;;;11.40;99.90;;;;;;4861944;29;20057;-80
2024/01/21 12:26:45;;;;;;;31.65;29.38;;;11.40;99.90;;;;;;4857238;29;20395;-81
2024/01/21 12:29:12;;;;;;;31.98;29.50;;;11.40;99.90;;;;;;4879500;29;20104;-81
2024/01/21 12:31:40;;;;;;;31.13;29.10;;;11.40;99.90;;;;;;4879265;29;20029;-81
2024/01/21 12:34:11;;;;;;;32.10;29.65;;;11.30;99.90;;;;;;4879282;29;20051;-81